sensor_id;sensor_type;location;lat;lon;timestamp;P1;durP1;ratioP1;P2;durP2;ratioP2
24421;SDS011;12600;53.326;-6.298;2023-06-22T00:01:55;10.02;;;3.53;;
24421;SDS011;12600;53.326;-6.298;2023-06-22T00:04:45;6.25;;;3.50;;
24421;SDS011;12600;53.326;-6.298;2023-06-22T00:07:34;8.88;;;3.70;;
24421;SDS011;12600;53.326;-6.298;2023-06-22T00:10:23;7.53;;;3.35;;
24421;SDS011;12600;53.326;-6.298;2023-06-22T00:13:14;8.88;;;3.30;;
24421;SDS011;12600;53.326;-6.298;2023-06-22T00:16:05;7.05;;;3.28;;
24421;SDS011;12600;53.326;-6.298;2023-06-22T00:18:55;6.38;;;3.80;;
24421;SDS011;12600;53.326;-6.298;2023-06-22T00:21:47;7.00;;;3.75;;
24421;SDS011;12600;53.326;-6.298;2023-06-22T00:24:39;8.15;;;3.75;;
24421;SDS011;12600;53.326;-6.298;2023-06-22T00:27:29;9.15;;;3.85;;
24421;SDS011;12600;53.326;-6.298;2023-06-22T00:30:19;14.00;;;5.22;;
24421;SDS011;12600;53.326;-6.298;2023-06-22T00:33:10;8.85;;;4.10;;
24421;SDS011;12600;53.326;-6.298;2023-06-22T00:36:00;15.93;;;5.15;;
24421;SDS011;12600;53.326;-6.298;2023-06-22T00:38:50;12.70;;;5.30;;
24421;SDS011;12600;53.326;-6.298;2023-06-22T00:41:39;15.88;;;5.18;;
24421;SDS011;12600;53.326;-6.298;2023-06-22T00:44:29;12.07;;;5.50;;
24421;SDS011;12600;53.326;-6.298;2023-06-22T00:47:18;15.35;;;4.75;;
24421;SDS011;12600;53.326;-6.298;2023-06-22T00:50:09;11.75;;;4.93;;
24421;SDS011;12600;53.326;-6.298;2023-06-22T00:53:08;9.65;;;4.22;;
24421;SDS011;12600;53.326;-6.298;2023-06-22T00:55:59;10.80;;;4.60;;
24421;SDS011;12600;53.326;-6.298;2023-06-22T00:58:50;7.05;;;3.80;;
24421;SDS011;12600;53.326;-6.298;2023-06-22T01:01:41;7.25;;;3.97;;
24421;SDS011;12600;53.326;-6.298;2023-06-22T01:04:34;7.07;;;4.15;;
24421;SDS011;12600;53.326;-6.298;2023-06-22T01:07:30;6.65;;;4.07;;
24421;SDS011;12600;53.326;-6.298;2023-06-22T01:10:28;7.90;;;4.20;;
24421;SDS011;12600;53.326;-6.298;2023-06-22T01:13:26;9.48;;;4.70;;
24421;SDS011;12600;53.326;-6.298;2023-06-22T01:16:23;5.97;;;4.15;;
24421;SDS011;12600;53.326;-6.298;2023-06-22T01:22:17;9.48;;;4.22;;
24421;SDS011;12600;53.326;-6.298;2023-06-22T01:25:11;6.03;;;4.30;;
24421;SDS011;12600;53.326;-6.298;2023-06-22T01:28:11;6.85;;;4.60;;
24421;SDS011;12600;53.326;-6.298;2023-06-22T01:31:15;7.82;;;4.75;;
24421;SDS011;12600;53.326;-6.298;2023-06-22T01:34:07;12.38;;;5.05;;
24421;SDS011;12600;53.326;-6.298;2023-06-22T01:36:58;8.35;;;5.30;;
24421;SDS011;12600;53.326;-6.298;2023-06-22T01:39:49;8.98;;;5.40;;
24421;SDS011;12600;53.326;-6.298;2023-06-22T01:42:39;9.85;;;5.30;;
24421;SDS011;12600;53.326;-6.298;2023-06-22T01:45:30;9.50;;;5.07;;
24421;SDS011;12600;53.326;-6.298;2023-06-22T01:48:20;9.80;;;5.00;;
24421;SDS011;12600;53.326;-6.298;2023-06-22T01:51:11;9.07;;;5.13;;
24421;SDS011;12600;53.326;-6.298;2023-06-22T01:54:00;7.47;;;4.88;;
24421;SDS011;12600;53.326;-6.298;2023-06-22T01:56:50;10.27;;;5.00;;
24421;SDS011;12600;53.326;-6.298;2023-06-22T01:59:42;7.72;;;4.68;;
24421;SDS011;12600;53.326;-6.298;2023-06-22T02:02:42;7.82;;;5.03;;
24421;SDS011;12600;53.326;-6.298;2023-06-22T02:05:46;8.35;;;4.75;;
24421;SDS011;12600;53.326;-6.298;2023-06-22T02:08:41;9.65;;;4.57;;
24421;SDS011;12600;53.326;-6.298;2023-06-22T02:11:38;6.72;;;4.45;;
24421;SDS011;12600;53.326;-6.298;2023-06-22T02:14:31;6.53;;;4.47;;
24421;SDS011;12600;53.326;-6.298;2023-06-22T02:17:22;7.35;;;4.85;;
24421;SDS011;12600;53.326;-6.298;2023-06-22T02:20:14;7.03;;;4.50;;
24421;SDS011;12600;53.326;-6.298;2023-06-22T02:23:05;8.52;;;4.57;;
24421;SDS011;12600;53.326;-6.298;2023-06-22T02:25:55;9.23;;;4.82;;
24421;SDS011;12600;53.326;-6.298;2023-06-22T02:28:45;8.05;;;4.53;;
24421;SDS011;12600;53.326;-6.298;2023-06-22T02:31:36;9.20;;;5.28;;
24421;SDS011;12600;53.326;-6.298;2023-06-22T02:34:26;6.95;;;4.72;;
24421;SDS011;12600;53.326;-6.298;2023-06-22T02:37:16;7.55;;;4.50;;
24421;SDS011;12600;53.326;-6.298;2023-06-22T02:40:08;9.50;;;4.75;;
24421;SDS011;12600;53.326;-6.298;2023-06-22T02:42:58;7.95;;;4.90;;
24421;SDS011;12600;53.326;-6.298;2023-06-22T02:45:50;5.80;;;4.30;;
24421;SDS011;12600;53.326;-6.298;2023-06-22T02:48:40;6.60;;;4.90;;
24421;SDS011;12600;53.326;-6.298;2023-06-22T02:51:33;9.05;;;4.60;;
24421;SDS011;12600;53.326;-6.298;2023-06-22T02:54:23;10.80;;;5.03;;
24421;SDS011;12600;53.326;-6.298;2023-06-22T02:57:15;7.47;;;4.78;;
24421;SDS011;12600;53.326;-6.298;2023-06-22T03:00:05;9.27;;;4.53;;
24421;SDS011;12600;53.326;-6.298;2023-06-22T03:03:05;12.20;;;5.82;;
24421;SDS011;12600;53.326;-6.298;2023-06-22T03:05:55;8.15;;;5.35;;
24421;SDS011;12600;53.326;-6.298;2023-06-22T03:08:44;7.47;;;4.78;;
24421;SDS011;12600;53.326;-6.298;2023-06-22T03:11:34;9.05;;;5.47;;
24421;SDS011;12600;53.326;-6.298;2023-06-22T03:14:25;7.85;;;5.25;;
24421;SDS011;12600;53.326;-6.298;2023-06-22T03:17:14;10.10;;;5.05;;
24421;SDS011;12600;53.326;-6.298;2023-06-22T03:20:04;8.05;;;5.05;;
24421;SDS011;12600;53.326;-6.298;2023-06-22T03:22:56;9.07;;;5.20;;
24421;SDS011;12600;53.326;-6.298;2023-06-22T03:25:47;7.68;;;5.35;;
24421;SDS011;12600;53.326;-6.298;2023-06-22T03:28:36;9.00;;;5.07;;
24421;SDS011;12600;53.326;-6.298;2023-06-22T03:31:29;6.70;;;5.25;;
24421;SDS011;12600;53.326;-6.298;2023-06-22T03:34:18;8.23;;;5.20;;
24421;SDS011;12600;53.326;-6.298;2023-06-22T03:37:12;7.55;;;5.00;;
24421;SDS011;12600;53.326;-6.298;2023-06-22T03:40:03;6.80;;;4.80;;
24421;SDS011;12600;53.326;-6.298;2023-06-22T03:42:55;8.68;;;6.70;;
24421;SDS011;12600;53.326;-6.298;2023-06-22T03:45:44;7.78;;;5.35;;
24421;SDS011;12600;53.326;-6.298;2023-06-22T03:48:35;9.38;;;5.30;;
24421;SDS011;12600;53.326;-6.298;2023-06-22T03:51:27;11.07;;;5.30;;
24421;SDS011;12600;53.326;-6.298;2023-06-22T03:54:17;11.07;;;5.57;;
24421;SDS011;12600;53.326;-6.298;2023-06-22T03:57:06;7.95;;;5.40;;
24421;SDS011;12600;53.326;-6.298;2023-06-22T03:59:56;10.32;;;5.45;;
24421;SDS011;12600;53.326;-6.298;2023-06-22T04:02:46;9.93;;;5.00;;
24421;SDS011;12600;53.326;-6.298;2023-06-22T04:05:37;10.25;;;5.78;;
24421;SDS011;12600;53.326;-6.298;2023-06-22T04:08:27;8.00;;;5.18;;
24421;SDS011;12600;53.326;-6.298;2023-06-22T04:11:16;8.70;;;5.30;;
24421;SDS011;12600;53.326;-6.298;2023-06-22T04:14:06;8.95;;;5.68;;
24421;SDS011;12600;53.326;-6.298;2023-06-22T04:16:55;10.77;;;6.00;;
24421;SDS011;12600;53.326;-6.298;2023-06-22T04:19:44;8.65;;;5.55;;
24421;SDS011;12600;53.326;-6.298;2023-06-22T04:22:35;11.32;;;6.20;;
24421;SDS011;12600;53.326;-6.298;2023-06-22T04:25:24;11.07;;;5.75;;
24421;SDS011;12600;53.326;-6.298;2023-06-22T04:28:14;9.55;;;6.28;;
24421;SDS011;12600;53.326;-6.298;2023-06-22T04:31:03;10.02;;;6.38;;
24421;SDS011;12600;53.326;-6.298;2023-06-22T04:33:53;10.02;;;5.88;;
24421;SDS011;12600;53.326;-6.298;2023-06-22T04:36:42;11.48;;;6.00;;
24421;SDS011;12600;53.326;-6.298;2023-06-22T04:39:33;16.05;;;6.55;;
24421;SDS011;12600;53.326;-6.298;2023-06-22T04:42:24;12.43;;;6.85;;
24421;SDS011;12600;53.326;-6.298;2023-06-22T04:45:14;10.90;;;5.80;;
24421;SDS011;12600;53.326;-6.298;2023-06-22T04:48:04;11.77;;;6.13;;
24421;SDS011;12600;53.326;-6.298;2023-06-22T04:50:55;12.07;;;6.38;;
24421;SDS011;12600;53.326;-6.298;2023-06-22T04:53:50;8.75;;;5.97;;
24421;SDS011;12600;53.326;-6.298;2023-06-22T04:56:40;11.50;;;6.10;;
24421;SDS011;12600;53.326;-6.298;2023-06-22T04:59:30;10.25;;;5.93;;
24421;SDS011;12600;53.326;-6.298;2023-06-22T05:02:20;9.18;;;6.32;;
24421;SDS011;12600;53.326;-6.298;2023-06-22T05:05:10;12.05;;;7.35;;
24421;SDS011;12600;53.326;-6.298;2023-06-22T05:08:01;10.18;;;6.47;;
24421;SDS011;12600;53.326;-6.298;2023-06-22T05:10:53;9.83;;;5.93;;
24421;SDS011;12600;53.326;-6.298;2023-06-22T05:13:53;9.93;;;6.22;;
24421;SDS011;12600;53.326;-6.298;2023-06-22T05:16:43;11.10;;;6.75;;
24421;SDS011;12600;53.326;-6.298;2023-06-22T05:19:33;11.18;;;6.55;;
24421;SDS011;12600;53.326;-6.298;2023-06-22T05:22:22;14.88;;;6.57;;
24421;SDS011;12600;53.326;-6.298;2023-06-22T05:25:12;8.98;;;6.75;;
24421;SDS011;12600;53.326;-6.298;2023-06-22T05:28:02;11.02;;;7.10;;
24421;SDS011;12600;53.326;-6.298;2023-06-22T05:31:00;9.50;;;6.90;;
24421;SDS011;12600;53.326;-6.298;2023-06-22T05:33:51;10.50;;;6.80;;
24421;SDS011;12600;53.326;-6.298;2023-06-22T05:36:41;14.47;;;7.13;;
24421;SDS011;12600;53.326;-6.298;2023-06-22T05:39:31;14.40;;;7.72;;
24421;SDS011;12600;53.326;-6.298;2023-06-22T05:42:21;12.98;;;7.00;;
24421;SDS011;12600;53.326;-6.298;2023-06-22T05:45:10;12.98;;;7.43;;
24421;SDS011;12600;53.326;-6.298;2023-06-22T05:48:01;20.67;;;7.75;;
24421;SDS011;12600;53.326;-6.298;2023-06-22T05:50:50;12.57;;;7.43;;
24421;SDS011;12600;53.326;-6.298;2023-06-22T05:53:40;15.02;;;8.43;;
24421;SDS011;12600;53.326;-6.298;2023-06-22T05:56:29;14.43;;;8.15;;
24421;SDS011;12600;53.326;-6.298;2023-06-22T05:59:19;15.32;;;8.40;;
24421;SDS011;12600;53.326;-6.298;2023-06-22T06:02:08;14.57;;;8.52;;
24421;SDS011;12600;53.326;-6.298;2023-06-22T06:04:59;14.48;;;8.73;;
24421;SDS011;12600;53.326;-6.298;2023-06-22T06:07:50;15.50;;;9.50;;
24421;SDS011;12600;53.326;-6.298;2023-06-22T06:10:40;17.65;;;9.63;;
24421;SDS011;12600;53.326;-6.298;2023-06-22T06:13:29;15.75;;;9.60;;
24421;SDS011;12600;53.326;-6.298;2023-06-22T06:16:18;16.52;;;10.05;;
24421;SDS011;12600;53.326;-6.298;2023-06-22T06:19:08;17.83;;;10.90;;
24421;SDS011;12600;53.326;-6.298;2023-06-22T06:21:59;22.55;;;11.95;;
24421;SDS011;12600;53.326;-6.298;2023-06-22T06:24:48;21.73;;;12.85;;
24421;SDS011;12600;53.326;-6.298;2023-06-22T06:27:38;22.27;;;12.25;;
24421;SDS011;12600;53.326;-6.298;2023-06-22T06:30:27;22.65;;;13.13;;
24421;SDS011;12600;53.326;-6.298;2023-06-22T06:33:17;25.17;;;13.63;;
24421;SDS011;12600;53.326;-6.298;2023-06-22T06:36:11;26.55;;;13.73;;
24421;SDS011;12600;53.326;-6.298;2023-06-22T06:39:02;27.02;;;15.98;;
24421;SDS011;12600;53.326;-6.298;2023-06-22T06:41:52;30.42;;;16.75;;
24421;SDS011;12600;53.326;-6.298;2023-06-22T06:44:42;33.83;;;17.00;;
24421;SDS011;12600;53.326;-6.298;2023-06-22T06:47:31;29.40;;;17.00;;
24421;SDS011;12600;53.326;-6.298;2023-06-22T06:50:21;29.10;;;15.93;;
24421;SDS011;12600;53.326;-6.298;2023-06-22T06:53:10;28.85;;;14.60;;
24421;SDS011;12600;53.326;-6.298;2023-06-22T06:56:01;26.02;;;15.15;;
24421;SDS011;12600;53.326;-6.298;2023-06-22T06:58:52;28.70;;;15.67;;
24421;SDS011;12600;53.326;-6.298;2023-06-22T07:01:42;25.13;;;15.10;;
24421;SDS011;12600;53.326;-6.298;2023-06-22T07:04:32;24.77;;;13.27;;
24421;SDS011;12600;53.326;-6.298;2023-06-22T07:07:22;25.95;;;13.88;;
24421;SDS011;12600;53.326;-6.298;2023-06-22T07:10:11;21.00;;;11.80;;
24421;SDS011;12600;53.326;-6.298;2023-06-22T07:13:02;23.67;;;11.63;;
24421;SDS011;12600;53.326;-6.298;2023-06-22T07:15:51;20.88;;;11.68;;
24421;SDS011;12600;53.326;-6.298;2023-06-22T07:18:41;21.38;;;12.02;;
24421;SDS011;12600;53.326;-6.298;2023-06-22T07:21:30;24.88;;;11.90;;
24421;SDS011;12600;53.326;-6.298;2023-06-22T07:24:19;21.67;;;11.93;;
24421;SDS011;12600;53.326;-6.298;2023-06-22T07:27:09;25.85;;;14.55;;
24421;SDS011;12600;53.326;-6.298;2023-06-22T07:30:01;24.08;;;13.43;;
24421;SDS011;12600;53.326;-6.298;2023-06-22T07:32:50;22.23;;;13.43;;
24421;SDS011;12600;53.326;-6.298;2023-06-22T07:35:40;17.20;;;9.95;;
24421;SDS011;12600;53.326;-6.298;2023-06-22T07:38:29;15.57;;;9.10;;
24421;SDS011;12600;53.326;-6.298;2023-06-22T07:41:19;18.08;;;9.38;;
24421;SDS011;12600;53.326;-6.298;2023-06-22T07:44:08;17.77;;;8.77;;
24421;SDS011;12600;53.326;-6.298;2023-06-22T07:46:59;13.65;;;8.90;;
24421;SDS011;12600;53.326;-6.298;2023-06-22T07:49:48;14.30;;;9.93;;
24421;SDS011;12600;53.326;-6.298;2023-06-22T07:52:38;15.25;;;8.10;;
24421;SDS011;12600;53.326;-6.298;2023-06-22T07:55:27;11.77;;;7.90;;
24421;SDS011;12600;53.326;-6.298;2023-06-22T07:58:17;15.38;;;8.38;;
24421;SDS011;12600;53.326;-6.298;2023-06-22T08:01:07;12.88;;;7.70;;
24421;SDS011;12600;53.326;-6.298;2023-06-22T08:03:59;11.30;;;7.05;;
24421;SDS011;12600;53.326;-6.298;2023-06-22T08:06:49;10.77;;;6.70;;
24421;SDS011;12600;53.326;-6.298;2023-06-22T08:09:38;14.15;;;7.70;;
24421;SDS011;12600;53.326;-6.298;2023-06-22T08:12:36;15.88;;;7.63;;
24421;SDS011;12600;53.326;-6.298;2023-06-22T08:15:26;15.98;;;7.28;;
24421;SDS011;12600;53.326;-6.298;2023-06-22T08:18:16;10.13;;;6.20;;
24421;SDS011;12600;53.326;-6.298;2023-06-22T08:21:07;12.02;;;6.57;;
24421;SDS011;12600;53.326;-6.298;2023-06-22T08:23:56;14.35;;;7.50;;
24421;SDS011;12600;53.326;-6.298;2023-06-22T08:26:45;13.40;;;6.90;;
24421;SDS011;12600;53.326;-6.298;2023-06-22T08:29:35;10.65;;;6.75;;
24421;SDS011;12600;53.326;-6.298;2023-06-22T08:32:24;10.65;;;6.90;;
24421;SDS011;12600;53.326;-6.298;2023-06-22T08:35:14;13.30;;;6.93;;
24421;SDS011;12600;53.326;-6.298;2023-06-22T08:38:05;9.80;;;6.80;;
24421;SDS011;12600;53.326;-6.298;2023-06-22T08:40:56;10.80;;;6.40;;
24421;SDS011;12600;53.326;-6.298;2023-06-22T08:43:45;11.15;;;6.38;;
24421;SDS011;12600;53.326;-6.298;2023-06-22T08:46:34;9.95;;;6.25;;
24421;SDS011;12600;53.326;-6.298;2023-06-22T08:49:26;10.60;;;6.70;;
24421;SDS011;12600;53.326;-6.298;2023-06-22T08:52:17;9.77;;;6.40;;
24421;SDS011;12600;53.326;-6.298;2023-06-22T08:55:09;9.77;;;6.43;;
24421;SDS011;12600;53.326;-6.298;2023-06-22T08:57:58;9.50;;;6.30;;
24421;SDS011;12600;53.326;-6.298;2023-06-22T09:00:48;9.80;;;5.45;;
24421;SDS011;12600;53.326;-6.298;2023-06-22T09:03:38;10.65;;;6.05;;
24421;SDS011;12600;53.326;-6.298;2023-06-22T09:06:28;10.20;;;6.50;;
24421;SDS011;12600;53.326;-6.298;2023-06-22T09:09:18;9.63;;;6.40;;
24421;SDS011;12600;53.326;-6.298;2023-06-22T09:12:11;8.18;;;5.50;;
24421;SDS011;12600;53.326;-6.298;2023-06-22T09:15:00;7.43;;;5.65;;
24421;SDS011;12600;53.326;-6.298;2023-06-22T09:17:52;9.93;;;5.60;;
24421;SDS011;12600;53.326;-6.298;2023-06-22T09:20:43;7.90;;;4.97;;
24421;SDS011;12600;53.326;-6.298;2023-06-22T09:23:33;7.95;;;5.32;;
24421;SDS011;12600;53.326;-6.298;2023-06-22T09:26:22;10.07;;;5.30;;
24421;SDS011;12600;53.326;-6.298;2023-06-22T09:29:13;7.43;;;5.68;;
24421;SDS011;12600;53.326;-6.298;2023-06-22T09:32:03;7.55;;;5.35;;
24421;SDS011;12600;53.326;-6.298;2023-06-22T09:34:54;7.80;;;4.93;;
24421;SDS011;12600;53.326;-6.298;2023-06-22T09:37:43;7.80;;;5.32;;
24421;SDS011;12600;53.326;-6.298;2023-06-22T09:40:33;10.55;;;6.00;;
24421;SDS011;12600;53.326;-6.298;2023-06-22T09:43:27;16.33;;;5.90;;
24421;SDS011;12600;53.326;-6.298;2023-06-22T09:46:18;10.45;;;5.90;;
24421;SDS011;12600;53.326;-6.298;2023-06-22T09:49:09;8.95;;;5.90;;
24421;SDS011;12600;53.326;-6.298;2023-06-22T09:51:58;9.52;;;5.70;;
24421;SDS011;12600;53.326;-6.298;2023-06-22T09:54:48;7.28;;;5.28;;
24421;SDS011;12600;53.326;-6.298;2023-06-22T09:57:37;9.55;;;5.13;;
24421;SDS011;12600;53.326;-6.298;2023-06-22T10:00:26;8.90;;;5.20;;
24421;SDS011;12600;53.326;-6.298;2023-06-22T10:03:17;10.75;;;5.78;;
24421;SDS011;12600;53.326;-6.298;2023-06-22T10:06:07;10.15;;;6.35;;
24421;SDS011;12600;53.326;-6.298;2023-06-22T10:08:57;9.55;;;4.93;;
24421;SDS011;12600;53.326;-6.298;2023-06-22T10:11:46;9.18;;;4.68;;
24421;SDS011;12600;53.326;-6.298;2023-06-22T10:14:35;10.68;;;5.10;;
24421;SDS011;12600;53.326;-6.298;2023-06-22T10:17:25;7.75;;;5.20;;
24421;SDS011;12600;53.326;-6.298;2023-06-22T10:20:16;9.90;;;5.32;;
24421;SDS011;12600;53.326;-6.298;2023-06-22T10:23:05;9.05;;;5.40;;
24421;SDS011;12600;53.326;-6.298;2023-06-22T10:25:55;9.85;;;5.00;;
24421;SDS011;12600;53.326;-6.298;2023-06-22T10:28:45;8.68;;;5.18;;
24421;SDS011;12600;53.326;-6.298;2023-06-22T10:31:34;6.90;;;4.68;;
24421;SDS011;12600;53.326;-6.298;2023-06-22T10:34:25;9.57;;;4.47;;
24421;SDS011;12600;53.326;-6.298;2023-06-22T10:37:15;9.60;;;4.55;;
24421;SDS011;12600;53.326;-6.298;2023-06-22T10:40:05;6.95;;;4.88;;
24421;SDS011;12600;53.326;-6.298;2023-06-22T10:42:56;8.27;;;4.20;;
24421;SDS011;12600;53.326;-6.298;2023-06-22T10:45:46;9.07;;;4.85;;
24421;SDS011;12600;53.326;-6.298;2023-06-22T10:48:35;5.55;;;4.10;;
24421;SDS011;12600;53.326;-6.298;2023-06-22T10:51:24;7.07;;;4.80;;
24421;SDS011;12600;53.326;-6.298;2023-06-22T10:54:16;8.48;;;4.60;;
24421;SDS011;12600;53.326;-6.298;2023-06-22T10:57:06;7.25;;;4.30;;
24421;SDS011;12600;53.326;-6.298;2023-06-22T10:59:55;7.28;;;4.45;;
24421;SDS011;12600;53.326;-6.298;2023-06-22T11:02:45;10.55;;;7.05;;
24421;SDS011;12600;53.326;-6.298;2023-06-22T11:05:34;7.18;;;4.75;;
24421;SDS011;12600;53.326;-6.298;2023-06-22T11:08:24;7.32;;;5.10;;
24421;SDS011;12600;53.326;-6.298;2023-06-22T11:11:15;7.18;;;4.35;;
24421;SDS011;12600;53.326;-6.298;2023-06-22T11:14:05;11.50;;;5.00;;
24421;SDS011;12600;53.326;-6.298;2023-06-22T11:16:54;8.00;;;4.75;;
24421;SDS011;12600;53.326;-6.298;2023-06-22T11:19:44;7.70;;;4.10;;
24421;SDS011;12600;53.326;-6.298;2023-06-22T11:22:34;5.72;;;4.25;;
24421;SDS011;12600;53.326;-6.298;2023-06-22T11:25:23;6.07;;;4.00;;
24421;SDS011;12600;53.326;-6.298;2023-06-22T11:28:14;5.75;;;4.05;;
24421;SDS011;12600;53.326;-6.298;2023-06-22T11:31:04;9.35;;;4.90;;
24421;SDS011;12600;53.326;-6.298;2023-06-22T11:34:12;8.32;;;4.60;;
24421;SDS011;12600;53.326;-6.298;2023-06-22T11:37:01;8.27;;;4.50;;
24421;SDS011;12600;53.326;-6.298;2023-06-22T11:39:50;13.55;;;5.40;;
24421;SDS011;12600;53.326;-6.298;2023-06-22T11:42:52;7.22;;;4.68;;
24421;SDS011;12600;53.326;-6.298;2023-06-22T11:45:44;15.05;;;5.40;;
24421;SDS011;12600;53.326;-6.298;2023-06-22T11:48:33;8.18;;;4.68;;
24421;SDS011;12600;53.326;-6.298;2023-06-22T11:51:23;6.93;;;4.57;;
24421;SDS011;12600;53.326;-6.298;2023-06-22T11:54:13;7.28;;;4.45;;
24421;SDS011;12600;53.326;-6.298;2023-06-22T11:57:02;7.90;;;5.05;;
24421;SDS011;12600;53.326;-6.298;2023-06-22T11:59:52;6.53;;;4.57;;
24421;SDS011;12600;53.326;-6.298;2023-06-22T12:02:43;10.85;;;5.10;;
24421;SDS011;12600;53.326;-6.298;2023-06-22T12:05:33;8.20;;;5.38;;
24421;SDS011;12600;53.326;-6.298;2023-06-22T12:08:23;6.53;;;4.93;;
24421;SDS011;12600;53.326;-6.298;2023-06-22T12:11:12;7.43;;;5.28;;
24421;SDS011;12600;53.326;-6.298;2023-06-22T12:14:01;8.77;;;5.70;;
24421;SDS011;12600;53.326;-6.298;2023-06-22T12:16:51;9.43;;;5.35;;
24421;SDS011;12600;53.326;-6.298;2023-06-22T12:19:42;7.28;;;5.05;;
24421;SDS011;12600;53.326;-6.298;2023-06-22T12:22:31;10.93;;;5.28;;
24421;SDS011;12600;53.326;-6.298;2023-06-22T12:25:21;6.68;;;4.90;;
24421;SDS011;12600;53.326;-6.298;2023-06-22T12:28:11;6.95;;;4.93;;
24421;SDS011;12600;53.326;-6.298;2023-06-22T12:31:01;8.52;;;5.10;;
24421;SDS011;12600;53.326;-6.298;2023-06-22T12:33:50;7.38;;;4.93;;
24421;SDS011;12600;53.326;-6.298;2023-06-22T12:36:41;8.88;;;6.13;;
24421;SDS011;12600;53.326;-6.298;2023-06-22T12:39:30;6.53;;;4.97;;
24421;SDS011;12600;53.326;-6.298;2023-06-22T12:42:19;9.23;;;5.10;;
24421;SDS011;12600;53.326;-6.298;2023-06-22T12:45:09;10.15;;;5.47;;
24421;SDS011;12600;53.326;-6.298;2023-06-22T12:47:58;6.50;;;4.60;;
24421;SDS011;12600;53.326;-6.298;2023-06-22T12:50:48;7.78;;;5.28;;
24421;SDS011;12600;53.326;-6.298;2023-06-22T12:53:40;10.02;;;4.75;;
24421;SDS011;12600;53.326;-6.298;2023-06-22T12:56:31;7.15;;;4.78;;
24421;SDS011;12600;53.326;-6.298;2023-06-22T12:59:21;6.82;;;4.40;;
24421;SDS011;12600;53.326;-6.298;2023-06-22T13:02:10;7.38;;;4.57;;
24421;SDS011;12600;53.326;-6.298;2023-06-22T13:05:01;5.95;;;4.60;;
24421;SDS011;12600;53.326;-6.298;2023-06-22T13:07:52;6.93;;;4.25;;
24421;SDS011;12600;53.326;-6.298;2023-06-22T13:10:43;6.30;;;4.25;;
24421;SDS011;12600;53.326;-6.298;2023-06-22T13:13:32;5.30;;;4.40;;
24421;SDS011;12600;53.326;-6.298;2023-06-22T13:16:22;8.35;;;4.72;;
24421;SDS011;12600;53.326;-6.298;2023-06-22T13:19:11;6.18;;;4.43;;
24421;SDS011;12600;53.326;-6.298;2023-06-22T13:22:01;6.57;;;4.50;;
24421;SDS011;12600;53.326;-6.298;2023-06-22T13:24:51;5.85;;;4.63;;
24421;SDS011;12600;53.326;-6.298;2023-06-22T13:27:43;7.20;;;4.90;;
24421;SDS011;12600;53.326;-6.298;2023-06-22T13:30:33;6.68;;;4.70;;
24421;SDS011;12600;53.326;-6.298;2023-06-22T13:33:22;5.78;;;4.57;;
24421;SDS011;12600;53.326;-6.298;2023-06-22T13:36:12;6.40;;;4.70;;
24421;SDS011;12600;53.326;-6.298;2023-06-22T13:39:01;5.93;;;4.63;;
24421;SDS011;12600;53.326;-6.298;2023-06-22T13:41:51;5.63;;;4.50;;
24421;SDS011;12600;53.326;-6.298;2023-06-22T13:44:43;6.18;;;4.70;;
24421;SDS011;12600;53.326;-6.298;2023-06-22T13:47:32;7.00;;;5.05;;
24421;SDS011;12600;53.326;-6.298;2023-06-22T13:50:22;5.57;;;4.55;;
24421;SDS011;12600;53.326;-6.298;2023-06-22T13:53:11;6.88;;;4.70;;
24421;SDS011;12600;53.326;-6.298;2023-06-22T13:56:00;21.35;;;15.10;;
24421;SDS011;12600;53.326;-6.298;2023-06-22T13:58:50;5.68;;;4.28;;
24421;SDS011;12600;53.326;-6.298;2023-06-22T14:01:41;6.20;;;4.28;;
24421;SDS011;12600;53.326;-6.298;2023-06-22T14:04:30;7.07;;;4.50;;
24421;SDS011;12600;53.326;-6.298;2023-06-22T14:07:20;5.90;;;4.28;;
24421;SDS011;12600;53.326;-6.298;2023-06-22T14:10:11;7.20;;;4.60;;
24421;SDS011;12600;53.326;-6.298;2023-06-22T14:13:00;8.57;;;4.47;;
24421;SDS011;12600;53.326;-6.298;2023-06-22T14:18:44;6.13;;;4.68;;
24421;SDS011;12600;53.326;-6.298;2023-06-22T14:21:34;5.40;;;4.27;;
24421;SDS011;12600;53.326;-6.298;2023-06-22T14:24:23;6.30;;;4.47;;
24421;SDS011;12600;53.326;-6.298;2023-06-22T14:27:16;5.88;;;4.40;;
24421;SDS011;12600;53.326;-6.298;2023-06-22T14:30:06;7.03;;;4.05;;
24421;SDS011;12600;53.326;-6.298;2023-06-22T14:32:56;4.78;;;3.70;;
24421;SDS011;12600;53.326;-6.298;2023-06-22T14:35:47;6.03;;;4.10;;
24421;SDS011;12600;53.326;-6.298;2023-06-22T14:38:36;5.20;;;4.07;;
24421;SDS011;12600;53.326;-6.298;2023-06-22T14:41:26;5.32;;;3.83;;
24421;SDS011;12600;53.326;-6.298;2023-06-22T14:44:17;5.55;;;3.97;;
24421;SDS011;12600;53.326;-6.298;2023-06-22T14:47:07;4.78;;;3.78;;
24421;SDS011;12600;53.326;-6.298;2023-06-22T14:49:56;4.60;;;3.83;;
24421;SDS011;12600;53.326;-6.298;2023-06-22T14:52:48;3.78;;;3.22;;
24421;SDS011;12600;53.326;-6.298;2023-06-22T14:55:38;4.63;;;3.72;;
24421;SDS011;12600;53.326;-6.298;2023-06-22T14:58:27;4.88;;;3.95;;
24421;SDS011;12600;53.326;-6.298;2023-06-22T15:01:20;4.95;;;3.22;;
24421;SDS011;12600;53.326;-6.298;2023-06-22T15:04:10;3.45;;;3.00;;
24421;SDS011;12600;53.326;-6.298;2023-06-22T15:06:59;5.20;;;3.70;;
24421;SDS011;12600;53.326;-6.298;2023-06-22T15:09:50;6.50;;;3.97;;
24421;SDS011;12600;53.326;-6.298;2023-06-22T15:12:39;6.07;;;4.65;;
24421;SDS011;12600;53.326;-6.298;2023-06-22T15:15:28;5.47;;;3.75;;
24421;SDS011;12600;53.326;-6.298;2023-06-22T15:18:18;7.57;;;3.72;;
24421;SDS011;12600;53.326;-6.298;2023-06-22T15:21:07;5.22;;;3.53;;
24421;SDS011;12600;53.326;-6.298;2023-06-22T15:23:57;4.93;;;2.92;;
24421;SDS011;12600;53.326;-6.298;2023-06-22T15:26:47;4.35;;;3.40;;
24421;SDS011;12600;53.326;-6.298;2023-06-22T15:29:37;4.25;;;3.10;;
24421;SDS011;12600;53.326;-6.298;2023-06-22T15:32:27;4.55;;;3.30;;
24421;SDS011;12600;53.326;-6.298;2023-06-22T15:35:16;9.90;;;3.28;;
24421;SDS011;12600;53.326;-6.298;2023-06-22T15:38:06;5.30;;;3.90;;
24421;SDS011;12600;53.326;-6.298;2023-06-22T15:40:55;5.15;;;4.50;;
24421;SDS011;12600;53.326;-6.298;2023-06-22T15:43:46;5.10;;;4.18;;
24421;SDS011;12600;53.326;-6.298;2023-06-22T15:46:35;6.80;;;3.92;;
24421;SDS011;12600;53.326;-6.298;2023-06-22T15:49:25;5.47;;;3.97;;
24421;SDS011;12600;53.326;-6.298;2023-06-22T15:52:15;5.13;;;4.28;;
24421;SDS011;12600;53.326;-6.298;2023-06-22T15:55:06;8.35;;;6.10;;
24421;SDS011;12600;53.326;-6.298;2023-06-22T15:57:57;5.50;;;3.70;;
24421;SDS011;12600;53.326;-6.298;2023-06-22T16:00:48;5.10;;;3.60;;
24421;SDS011;12600;53.326;-6.298;2023-06-22T16:03:39;4.30;;;3.38;;
24421;SDS011;12600;53.326;-6.298;2023-06-22T16:06:29;5.60;;;3.28;;
24421;SDS011;12600;53.326;-6.298;2023-06-22T16:09:18;5.47;;;3.30;;
24421;SDS011;12600;53.326;-6.298;2023-06-22T16:12:08;4.80;;;3.40;;
24421;SDS011;12600;53.326;-6.298;2023-06-22T16:14:58;3.67;;;3.05;;
24421;SDS011;12600;53.326;-6.298;2023-06-22T16:17:49;5.53;;;3.13;;
24421;SDS011;12600;53.326;-6.298;2023-06-22T16:20:38;5.40;;;3.38;;
24421;SDS011;12600;53.326;-6.298;2023-06-22T16:23:27;4.68;;;3.00;;
24421;SDS011;12600;53.326;-6.298;2023-06-22T16:26:17;5.47;;;3.28;;
24421;SDS011;12600;53.326;-6.298;2023-06-22T16:29:06;5.07;;;3.15;;
24421;SDS011;12600;53.326;-6.298;2023-06-22T16:31:56;5.75;;;3.60;;
24421;SDS011;12600;53.326;-6.298;2023-06-22T16:34:47;5.78;;;3.10;;
24421;SDS011;12600;53.326;-6.298;2023-06-22T16:37:36;3.92;;;2.97;;
24421;SDS011;12600;53.326;-6.298;2023-06-22T16:40:26;6.20;;;3.20;;
24421;SDS011;12600;53.326;-6.298;2023-06-22T16:43:15;4.03;;;3.15;;
24421;SDS011;12600;53.326;-6.298;2023-06-22T16:46:05;6.55;;;3.33;;
24421;SDS011;12600;53.326;-6.298;2023-06-22T16:48:54;6.20;;;3.08;;
24421;SDS011;12600;53.326;-6.298;2023-06-22T16:51:45;4.53;;;3.28;;